sensor_id;sensor_type;location;lat;lon;timestamp;P1;durP1;ratioP1;P2;durP2;ratioP2
29412;SDS011;16389;50.126;8.450;2024-01-15T00:02:16;25.13;;;11.07;;
29412;SDS011;16389;50.126;8.450;2024-01-15T00:04:41;23.10;;;10.88;;
29412;SDS011;16389;50.126;8.450;2024-01-15T00:07:07;28.92;;;11.80;;
29412;SDS011;16389;50.126;8.450;2024-01-15T00:09:34;27.55;;;11.68;;
29412;SDS011;16389;50.126;8.450;2024-01-15T00:12:00;25.98;;;11.52;;
29412;SDS011;16389;50.126;8.450;2024-01-15T00:14:26;32.10;;;12.88;;
29412;SDS011;16389;50.126;8.450;2024-01-15T00:16:52;27.55;;;11.25;;
29412;SDS011;16389;50.126;8.450;2024-01-15T00:19:20;28.13;;;11.85;;
29412;SDS011;16389;50.126;8.450;2024-01-15T00:21:46;27.52;;;11.75;;
29412;SDS011;16389;50.126;8.450;2024-01-15T00:24:11;26.95;;;10.80;;
29412;SDS011;16389;50.126;8.450;2024-01-15T00:26:37;26.00;;;11.05;;
29412;SDS011;16389;50.126;8.450;2024-01-15T00:29:03;23.88;;;10.88;;
29412;SDS011;16389;50.126;8.450;2024-01-15T00:31:29;24.92;;;10.77;;
29412;SDS011;16389;50.126;8.450;2024-01-15T00:33:55;28.08;;;12.57;;
29412;SDS011;16389;50.126;8.450;2024-01-15T00:36:21;25.60;;;10.95;;
29412;SDS011;16389;50.126;8.450;2024-01-15T00:38:46;29.27;;;11.38;;
29412;SDS011;16389;50.126;8.450;2024-01-15T00:41:12;24.35;;;11.20;;
29412;SDS011;16389;50.126;8.450;2024-01-15T00:43:38;26.05;;;10.75;;
29412;SDS011;16389;50.126;8.450;2024-01-15T00:46:04;25.83;;;11.48;;
29412;SDS011;16389;50.126;8.450;2024-01-15T00:48:30;22.65;;;11.60;;
29412;SDS011;16389;50.126;8.450;2024-01-15T00:50:56;33.35;;;12.27;;
29412;SDS011;16389;50.126;8.450;2024-01-15T00:53:21;24.67;;;11.18;;
29412;SDS011;16389;50.126;8.450;2024-01-15T00:55:50;25.25;;;11.43;;
29412;SDS011;16389;50.126;8.450;2024-01-15T00:58:15;21.83;;;11.48;;
29412;SDS011;16389;50.126;8.450;2024-01-15T01:00:41;26.92;;;11.05;;
29412;SDS011;16389;50.126;8.450;2024-01-15T01:03:07;26.40;;;11.57;;
29412;SDS011;16389;50.126;8.450;2024-01-15T01:05:33;24.45;;;10.25;;
29412;SDS011;16389;50.126;8.450;2024-01-15T01:07:59;29.23;;;12.10;;
29412;SDS011;16389;50.126;8.450;2024-01-15T01:10:25;26.23;;;11.80;;
29412;SDS011;16389;50.126;8.450;2024-01-15T01:12:50;21.85;;;10.55;;
29412;SDS011;16389;50.126;8.450;2024-01-15T01:15:16;26.33;;;10.98;;
29412;SDS011;16389;50.126;8.450;2024-01-15T01:17:42;28.98;;;12.32;;
29412;SDS011;16389;50.126;8.450;2024-01-15T01:20:07;26.20;;;11.60;;
29412;SDS011;16389;50.126;8.450;2024-01-15T01:22:34;28.88;;;12.52;;
29412;SDS011;16389;50.126;8.450;2024-01-15T01:25:00;25.27;;;12.88;;
29412;SDS011;16389;50.126;8.450;2024-01-15T01:27:26;27.98;;;11.63;;
29412;SDS011;16389;50.126;8.450;2024-01-15T01:29:51;24.75;;;11.07;;
29412;SDS011;16389;50.126;8.450;2024-01-15T01:32:17;27.95;;;11.80;;
29412;SDS011;16389;50.126;8.450;2024-01-15T01:34:43;32.72;;;11.75;;
29412;SDS011;16389;50.126;8.450;2024-01-15T01:37:09;29.27;;;11.25;;
29412;SDS011;16389;50.126;8.450;2024-01-15T01:39:37;25.02;;;11.23;;
29412;SDS011;16389;50.126;8.450;2024-01-15T01:42:03;24.75;;;12.20;;
29412;SDS011;16389;50.126;8.450;2024-01-15T01:44:29;23.83;;;10.75;;
29412;SDS011;16389;50.126;8.450;2024-01-15T01:46:54;23.00;;;11.65;;
29412;SDS011;16389;50.126;8.450;2024-01-15T01:49:22;24.92;;;12.02;;
29412;SDS011;16389;50.126;8.450;2024-01-15T01:51:48;26.80;;;11.35;;
29412;SDS011;16389;50.126;8.450;2024-01-15T01:54:18;26.00;;;11.95;;
29412;SDS011;16389;50.126;8.450;2024-01-15T01:56:45;31.65;;;12.52;;
29412;SDS011;16389;50.126;8.450;2024-01-15T01:59:13;27.10;;;11.65;;
29412;SDS011;16389;50.126;8.450;2024-01-15T02:01:39;24.98;;;11.82;;
29412;SDS011;16389;50.126;8.450;2024-01-15T02:04:05;24.38;;;12.00;;
29412;SDS011;16389;50.126;8.450;2024-01-15T02:06:31;33.80;;;12.15;;
29412;SDS011;16389;50.126;8.450;2024-01-15T02:08:56;25.13;;;10.60;;
29412;SDS011;16389;50.126;8.450;2024-01-15T02:11:22;30.90;;;12.13;;
29412;SDS011;16389;50.126;8.450;2024-01-15T02:13:48;27.27;;;11.68;;
29412;SDS011;16389;50.126;8.450;2024-01-15T02:16:14;23.30;;;11.20;;
29412;SDS011;16389;50.126;8.450;2024-01-15T02:18:43;21.20;;;10.65;;
29412;SDS011;16389;50.126;8.450;2024-01-15T02:21:09;26.75;;;11.32;;
29412;SDS011;16389;50.126;8.450;2024-01-15T02:23:35;31.13;;;11.85;;
29412;SDS011;16389;50.126;8.450;2024-01-15T02:26:02;23.75;;;11.27;;
29412;SDS011;16389;50.126;8.450;2024-01-15T02:28:29;22.98;;;11.63;;
29412;SDS011;16389;50.126;8.450;2024-01-15T02:30:55;21.45;;;10.82;;
29412;SDS011;16389;50.126;8.450;2024-01-15T02:33:20;30.85;;;12.77;;
29412;SDS011;16389;50.126;8.450;2024-01-15T02:35:46;28.52;;;12.32;;
29412;SDS011;16389;50.126;8.450;2024-01-15T02:38:15;23.55;;;11.10;;
29412;SDS011;16389;50.126;8.450;2024-01-15T02:40:41;27.73;;;10.32;;
29412;SDS011;16389;50.126;8.450;2024-01-15T02:43:06;18.55;;;10.38;;
29412;SDS011;16389;50.126;8.450;2024-01-15T02:45:32;21.90;;;9.85;;
29412;SDS011;16389;50.126;8.450;2024-01-15T02:47:57;19.83;;;11.00;;
29412;SDS011;16389;50.126;8.450;2024-01-15T02:50:23;25.27;;;12.13;;
29412;SDS011;16389;50.126;8.450;2024-01-15T02:52:48;25.20;;;10.90;;
29412;SDS011;16389;50.126;8.450;2024-01-15T02:55:14;25.45;;;10.98;;
29412;SDS011;16389;50.126;8.450;2024-01-15T02:57:40;25.58;;;10.40;;
29412;SDS011;16389;50.126;8.450;2024-01-15T03:00:06;28.17;;;11.90;;
29412;SDS011;16389;50.126;8.450;2024-01-15T03:02:32;27.48;;;11.77;;
29412;SDS011;16389;50.126;8.450;2024-01-15T03:04:58;22.02;;;10.82;;
29412;SDS011;16389;50.126;8.450;2024-01-15T03:07:23;22.85;;;10.95;;
29412;SDS011;16389;50.126;8.450;2024-01-15T03:09:49;25.65;;;11.73;;
29412;SDS011;16389;50.126;8.450;2024-01-15T03:12:15;18.85;;;10.73;;
29412;SDS011;16389;50.126;8.450;2024-01-15T03:14:40;29.38;;;11.68;;
29412;SDS011;16389;50.126;8.450;2024-01-15T03:17:06;20.38;;;10.20;;
29412;SDS011;16389;50.126;8.450;2024-01-15T03:19:34;25.50;;;10.55;;
29412;SDS011;16389;50.126;8.450;2024-01-15T03:22:00;21.25;;;10.57;;
29412;SDS011;16389;50.126;8.450;2024-01-15T03:24:27;22.70;;;9.70;;
29412;SDS011;16389;50.126;8.450;2024-01-15T03:26:53;23.50;;;10.45;;
29412;SDS011;16389;50.126;8.450;2024-01-15T03:29:18;22.85;;;11.43;;
29412;SDS011;16389;50.126;8.450;2024-01-15T03:31:44;22.40;;;10.35;;
29412;SDS011;16389;50.126;8.450;2024-01-15T03:34:09;21.23;;;11.55;;
29412;SDS011;16389;50.126;8.450;2024-01-15T03:36:35;23.33;;;11.50;;
29412;SDS011;16389;50.126;8.450;2024-01-15T03:39:01;20.88;;;10.18;;
29412;SDS011;16389;50.126;8.450;2024-01-15T03:41:26;23.83;;;11.10;;
29412;SDS011;16389;50.126;8.450;2024-01-15T03:43:52;29.35;;;11.57;;
29412;SDS011;16389;50.126;8.450;2024-01-15T03:46:17;20.38;;;10.95;;
29412;SDS011;16389;50.126;8.450;2024-01-15T03:48:43;19.52;;;11.07;;
29412;SDS011;16389;50.126;8.450;2024-01-15T03:51:08;23.00;;;10.75;;
29412;SDS011;16389;50.126;8.450;2024-01-15T03:53:34;21.52;;;9.70;;
29412;SDS011;16389;50.126;8.450;2024-01-15T03:55:59;23.42;;;10.55;;
29412;SDS011;16389;50.126;8.450;2024-01-15T03:58:25;24.17;;;10.43;;
29412;SDS011;16389;50.126;8.450;2024-01-15T04:00:50;27.85;;;10.10;;
29412;SDS011;16389;50.126;8.450;2024-01-15T04:03:16;17.80;;;9.52;;
29412;SDS011;16389;50.126;8.450;2024-01-15T04:05:42;26.02;;;11.52;;
29412;SDS011;16389;50.126;8.450;2024-01-15T04:08:07;22.45;;;11.13;;
29412;SDS011;16389;50.126;8.450;2024-01-15T04:10:33;22.92;;;11.05;;
29412;SDS011;16389;50.126;8.450;2024-01-15T04:12:58;20.83;;;10.52;;
29412;SDS011;16389;50.126;8.450;2024-01-15T04:15:25;19.23;;;10.38;;
29412;SDS011;16389;50.126;8.450;2024-01-15T04:17:51;20.73;;;9.25;;
29412;SDS011;16389;50.126;8.450;2024-01-15T04:20:17;19.92;;;10.23;;
29412;SDS011;16389;50.126;8.450;2024-01-15T04:22:43;21.38;;;11.35;;
29412;SDS011;16389;50.126;8.450;2024-01-15T04:25:09;18.00;;;10.13;;
29412;SDS011;16389;50.126;8.450;2024-01-15T04:27:34;18.48;;;9.35;;
29412;SDS011;16389;50.126;8.450;2024-01-15T04:30:00;16.00;;;9.75;;
29412;SDS011;16389;50.126;8.450;2024-01-15T04:32:26;25.27;;;10.65;;
29412;SDS011;16389;50.126;8.450;2024-01-15T04:34:51;24.08;;;9.90;;
29412;SDS011;16389;50.126;8.450;2024-01-15T04:37:17;20.80;;;10.52;;
29412;SDS011;16389;50.126;8.450;2024-01-15T04:39:42;16.63;;;9.85;;
29412;SDS011;16389;50.126;8.450;2024-01-15T04:42:08;19.38;;;9.63;;
29412;SDS011;16389;50.126;8.450;2024-01-15T04:44:34;18.48;;;10.02;;
29412;SDS011;16389;50.126;8.450;2024-01-15T04:46:59;24.27;;;10.90;;
29412;SDS011;16389;50.126;8.450;2024-01-15T04:49:25;22.38;;;10.18;;
29412;SDS011;16389;50.126;8.450;2024-01-15T04:51:54;23.20;;;10.68;;
29412;SDS011;16389;50.126;8.450;2024-01-15T04:54:20;22.38;;;10.07;;
29412;SDS011;16389;50.126;8.450;2024-01-15T04:56:45;27.85;;;9.93;;
29412;SDS011;16389;50.126;8.450;2024-01-15T04:59:11;18.90;;;10.00;;
29412;SDS011;16389;50.126;8.450;2024-01-15T05:01:37;21.83;;;9.50;;
29412;SDS011;16389;50.126;8.450;2024-01-15T05:04:03;18.48;;;9.27;;
29412;SDS011;16389;50.126;8.450;2024-01-15T05:06:28;23.58;;;9.27;;
29412;SDS011;16389;50.126;8.450;2024-01-15T05:08:54;21.95;;;10.10;;
29412;SDS011;16389;50.126;8.450;2024-01-15T05:11:20;22.08;;;9.18;;
29412;SDS011;16389;50.126;8.450;2024-01-15T05:13:45;22.80;;;10.02;;
29412;SDS011;16389;50.126;8.450;2024-01-15T05:16:11;24.42;;;9.38;;
29412;SDS011;16389;50.126;8.450;2024-01-15T05:18:36;20.20;;;9.55;;
29412;SDS011;16389;50.126;8.450;2024-01-15T05:21:02;22.17;;;11.65;;
29412;SDS011;16389;50.126;8.450;2024-01-15T05:23:28;19.60;;;10.02;;
29412;SDS011;16389;50.126;8.450;2024-01-15T05:25:55;22.42;;;10.15;;
29412;SDS011;16389;50.126;8.450;2024-01-15T05:28:21;23.25;;;9.70;;
29412;SDS011;16389;50.126;8.450;2024-01-15T05:30:46;22.35;;;10.25;;
29412;SDS011;16389;50.126;8.450;2024-01-15T05:33:13;20.48;;;9.55;;
29412;SDS011;16389;50.126;8.450;2024-01-15T05:35:38;25.02;;;10.68;;
29412;SDS011;16389;50.126;8.450;2024-01-15T05:38:04;21.33;;;9.68;;
29412;SDS011;16389;50.126;8.450;2024-01-15T05:40:30;19.98;;;9.75;;
29412;SDS011;16389;50.126;8.450;2024-01-15T05:42:55;23.92;;;9.88;;
29412;SDS011;16389;50.126;8.450;2024-01-15T05:45:21;17.52;;;8.68;;
29412;SDS011;16389;50.126;8.450;2024-01-15T05:47:46;22.23;;;9.80;;
29412;SDS011;16389;50.126;8.450;2024-01-15T05:50:12;27.98;;;10.65;;
29412;SDS011;16389;50.126;8.450;2024-01-15T05:52:37;24.00;;;10.35;;
29412;SDS011;16389;50.126;8.450;2024-01-15T05:55:04;22.88;;;10.35;;
29412;SDS011;16389;50.126;8.450;2024-01-15T05:57:30;22.67;;;10.40;;
29412;SDS011;16389;50.126;8.450;2024-01-15T05:59:56;20.40;;;10.70;;
29412;SDS011;16389;50.126;8.450;2024-01-15T06:02:21;20.98;;;9.90;;
29412;SDS011;16389;50.126;8.450;2024-01-15T06:04:49;22.70;;;9.98;;
29412;SDS011;16389;50.126;8.450;2024-01-15T06:07:15;26.00;;;10.50;;
29412;SDS011;16389;50.126;8.450;2024-01-15T06:09:40;25.65;;;11.45;;
29412;SDS011;16389;50.126;8.450;2024-01-15T06:12:07;20.77;;;9.90;;
29412;SDS011;16389;50.126;8.450;2024-01-15T06:14:33;23.52;;;10.77;;
29412;SDS011;16389;50.126;8.450;2024-01-15T06:16:58;21.90;;;11.43;;
29412;SDS011;16389;50.126;8.450;2024-01-15T06:19:24;25.00;;;10.88;;
29412;SDS011;16389;50.126;8.450;2024-01-15T06:21:49;26.02;;;10.90;;
29412;SDS011;16389;50.126;8.450;2024-01-15T06:24:15;25.65;;;10.65;;
29412;SDS011;16389;50.126;8.450;2024-01-15T06:26:42;23.58;;;10.48;;
29412;SDS011;16389;50.126;8.450;2024-01-15T06:29:08;25.15;;;10.98;;
29412;SDS011;16389;50.126;8.450;2024-01-15T06:31:33;23.05;;;11.57;;
29412;SDS011;16389;50.126;8.450;2024-01-15T06:33:59;24.88;;;11.55;;
29412;SDS011;16389;50.126;8.450;2024-01-15T06:36:25;27.55;;;11.32;;
29412;SDS011;16389;50.126;8.450;2024-01-15T06:38:50;30.13;;;11.60;;
29412;SDS011;16389;50.126;8.450;2024-01-15T06:41:16;28.10;;;11.98;;
29412;SDS011;16389;50.126;8.450;2024-01-15T06:43:42;30.13;;;11.90;;
29412;SDS011;16389;50.126;8.450;2024-01-15T06:46:07;28.27;;;11.75;;
29412;SDS011;16389;50.126;8.450;2024-01-15T06:48:34;29.95;;;12.23;;
29412;SDS011;16389;50.126;8.450;2024-01-15T06:50:59;23.65;;;11.38;;
29412;SDS011;16389;50.126;8.450;2024-01-15T06:53:25;26.20;;;11.93;;
29412;SDS011;16389;50.126;8.450;2024-01-15T06:55:50;42.65;;;15.18;;
29412;SDS011;16389;50.126;8.450;2024-01-15T06:58:16;30.92;;;12.38;;
29412;SDS011;16389;50.126;8.450;2024-01-15T07:00:42;27.92;;;12.45;;
29412;SDS011;16389;50.126;8.450;2024-01-15T07:03:07;31.75;;;12.38;;
29412;SDS011;16389;50.126;8.450;2024-01-15T07:05:33;28.20;;;12.82;;
29412;SDS011;16389;50.126;8.450;2024-01-15T07:07:58;26.15;;;11.52;;
29412;SDS011;16389;50.126;8.450;2024-01-15T07:10:24;25.35;;;12.02;;
29412;SDS011;16389;50.126;8.450;2024-01-15T07:12:51;24.20;;;10.90;;
29412;SDS011;16389;50.126;8.450;2024-01-15T07:15:16;27.52;;;11.48;;
29412;SDS011;16389;50.126;8.450;2024-01-15T07:17:42;22.42;;;11.88;;
29412;SDS011;16389;50.126;8.450;2024-01-15T07:20:08;26.48;;;11.20;;
29412;SDS011;16389;50.126;8.450;2024-01-15T07:22:37;25.17;;;12.38;;
29412;SDS011;16389;50.126;8.450;2024-01-15T07:25:03;22.33;;;9.32;;
29412;SDS011;16389;50.126;8.450;2024-01-15T07:27:30;34.10;;;12.07;;
29412;SDS011;16389;50.126;8.450;2024-01-15T07:29:58;23.83;;;11.07;;
29412;SDS011;16389;50.126;8.450;2024-01-15T07:32:24;20.05;;;11.20;;
29412;SDS011;16389;50.126;8.450;2024-01-15T07:34:49;25.20;;;12.35;;
29412;SDS011;16389;50.126;8.450;2024-01-15T07:37:15;26.20;;;12.68;;
29412;SDS011;16389;50.126;8.450;2024-01-15T07:39:41;21.52;;;11.98;;
29412;SDS011;16389;50.126;8.450;2024-01-15T07:42:06;24.98;;;12.05;;
29412;SDS011;16389;50.126;8.450;2024-01-15T07:44:32;30.02;;;11.57;;
29412;SDS011;16389;50.126;8.450;2024-01-15T07:46:58;32.35;;;13.48;;
29412;SDS011;16389;50.126;8.450;2024-01-15T07:49:23;27.50;;;12.35;;
29412;SDS011;16389;50.126;8.450;2024-01-15T07:51:49;28.30;;;12.48;;
29412;SDS011;16389;50.126;8.450;2024-01-15T07:54:15;27.33;;;13.48;;
29412;SDS011;16389;50.126;8.450;2024-01-15T07:56:59;24.20;;;12.18;;
29412;SDS011;16389;50.126;8.450;2024-01-15T07:59:27;35.00;;;13.20;;
29412;SDS011;16389;50.126;8.450;2024-01-15T08:01:53;28.13;;;11.75;;
29412;SDS011;16389;50.126;8.450;2024-01-15T08:04:19;32.70;;;12.63;;
29412;SDS011;16389;50.126;8.450;2024-01-15T08:06:45;30.85;;;12.10;;
29412;SDS011;16389;50.126;8.450;2024-01-15T08:09:11;25.77;;;12.57;;
29412;SDS011;16389;50.126;8.450;2024-01-15T08:11:41;25.02;;;11.57;;
29412;SDS011;16389;50.126;8.450;2024-01-15T08:14:07;27.60;;;12.02;;
29412;SDS011;16389;50.126;8.450;2024-01-15T08:16:33;29.45;;;12.70;;
29412;SDS011;16389;50.126;8.450;2024-01-15T08:18:59;24.40;;;11.23;;
29412;SDS011;16389;50.126;8.450;2024-01-15T08:21:25;23.98;;;11.95;;
29412;SDS011;16389;50.126;8.450;2024-01-15T08:23:53;27.65;;;11.80;;
29412;SDS011;16389;50.126;8.450;2024-01-15T08:26:19;26.20;;;11.73;;
29412;SDS011;16389;50.126;8.450;2024-01-15T08:28:44;28.60;;;13.25;;
29412;SDS011;16389;50.126;8.450;2024-01-15T08:31:10;22.40;;;11.55;;
29412;SDS011;16389;50.126;8.450;2024-01-15T08:33:35;27.45;;;12.38;;
29412;SDS011;16389;50.126;8.450;2024-01-15T08:36:01;22.65;;;11.50;;
29412;SDS011;16389;50.126;8.450;2024-01-15T08:38:27;24.23;;;11.55;;
29412;SDS011;16389;50.126;8.450;2024-01-15T08:40:53;23.55;;;10.63;;
29412;SDS011;16389;50.126;8.450;2024-01-15T08:43:21;21.42;;;11.15;;
29412;SDS011;16389;50.126;8.450;2024-01-15T08:45:47;23.15;;;11.15;;
29412;SDS011;16389;50.126;8.450;2024-01-15T08:48:13;25.67;;;13.32;;
29412;SDS011;16389;50.126;8.450;2024-01-15T08:50:38;27.90;;;12.25;;
29412;SDS011;16389;50.126;8.450;2024-01-15T08:53:04;25.48;;;12.50;;
29412;SDS011;16389;50.126;8.450;2024-01-15T08:55:30;25.02;;;12.82;;
29412;SDS011;16389;50.126;8.450;2024-01-15T08:57:56;26.60;;;10.60;;
29412;SDS011;16389;50.126;8.450;2024-01-15T09:00:21;20.50;;;11.60;;
29412;SDS011;16389;50.126;8.450;2024-01-15T09:02:47;19.33;;;11.32;;
29412;SDS011;16389;50.126;8.450;2024-01-15T09:05:12;24.30;;;12.40;;
29412;SDS011;16389;50.126;8.450;2024-01-15T09:07:38;21.50;;;11.38;;
29412;SDS011;16389;50.126;8.450;2024-01-15T09:10:04;23.30;;;11.65;;
29412;SDS011;16389;50.126;8.450;2024-01-15T09:12:29;24.58;;;11.63;;
29412;SDS011;16389;50.126;8.450;2024-01-15T09:14:55;27.10;;;12.02;;
29412;SDS011;16389;50.126;8.450;2024-01-15T09:17:21;19.63;;;11.07;;
29412;SDS011;16389;50.126;8.450;2024-01-15T09:19:48;22.05;;;11.20;;
29412;SDS011;16389;50.126;8.450;2024-01-15T09:22:14;20.80;;;11.57;;
29412;SDS011;16389;50.126;8.450;2024-01-15T09:24:43;22.40;;;11.70;;
29412;SDS011;16389;50.126;8.450;2024-01-15T09:27:09;19.40;;;10.80;;
29412;SDS011;16389;50.126;8.450;2024-01-15T09:29:35;25.67;;;10.90;;
29412;SDS011;16389;50.126;8.450;2024-01-15T09:32:07;22.73;;;11.10;;
29412;SDS011;16389;50.126;8.450;2024-01-15T09:34:33;23.60;;;12.50;;
29412;SDS011;16389;50.126;8.450;2024-01-15T09:36:59;26.35;;;11.30;;
29412;SDS011;16389;50.126;8.450;2024-01-15T09:39:28;22.85;;;11.38;;
29412;SDS011;16389;50.126;8.450;2024-01-15T09:41:53;22.98;;;12.10;;
29412;SDS011;16389;50.126;8.450;2024-01-15T09:44:20;18.98;;;11.38;;
29412;SDS011;16389;50.126;8.450;2024-01-15T09:46:46;21.73;;;11.45;;
29412;SDS011;16389;50.126;8.450;2024-01-15T09:49:15;22.03;;;11.63;;
29412;SDS011;16389;50.126;8.450;2024-01-15T09:51:44;18.35;;;11.10;;
29412;SDS011;16389;50.126;8.450;2024-01-15T09:54:09;19.58;;;11.00;;
29412;SDS011;16389;50.126;8.450;2024-01-15T09:56:35;21.13;;;11.25;;
29412;SDS011;16389;50.126;8.450;2024-01-15T09:59:01;20.75;;;10.20;;
29412;SDS011;16389;50.126;8.450;2024-01-15T10:01:29;19.17;;;10.15;;
29412;SDS011;16389;50.126;8.450;2024-01-15T10:03:57;19.90;;;11.68;;
29412;SDS011;16389;50.126;8.450;2024-01-15T10:06:23;20.13;;;10.60;;
29412;SDS011;16389;50.126;8.450;2024-01-15T10:08:56;17.20;;;9.85;;
29412;SDS011;16389;50.126;8.450;2024-01-15T10:11:23;20.30;;;10.60;;
29412;SDS011;16389;50.126;8.450;2024-01-15T10:13:49;18.33;;;10.45;;
29412;SDS011;16389;50.126;8.450;2024-01-15T10:16:18;19.55;;;11.00;;
29412;SDS011;16389;50.126;8.450;2024-01-15T10:18:47;18.55;;;10.45;;
29412;SDS011;16389;50.126;8.450;2024-01-15T10:21:13;18.15;;;10.43;;
29412;SDS011;16389;50.126;8.450;2024-01-15T10:23:39;19.02;;;11.23;;
29412;SDS011;16389;50.126;8.450;2024-01-15T10:26:05;19.25;;;9.15;;
29412;SDS011;16389;50.126;8.450;2024-01-15T10:28:30;14.50;;;9.23;;
29412;SDS011;16389;50.126;8.450;2024-01-15T10:30:57;15.50;;;10.65;;
29412;SDS011;16389;50.126;8.450;2024-01-15T10:33:26;19.80;;;11.10;;
29412;SDS011;16389;50.126;8.450;2024-01-15T10:35:59;20.40;;;10.10;;
29412;SDS011;16389;50.126;8.450;2024-01-15T10:38:26;16.05;;;9.98;;
29412;SDS011;16389;50.126;8.450;2024-01-15T10:40:54;15.52;;;9.05;;
29412;SDS011;16389;50.126;8.450;2024-01-15T10:43:20;16.80;;;9.98;;
29412;SDS011;16389;50.126;8.450;2024-01-15T10:45:47;16.45;;;9.82;;
29412;SDS011;16389;50.126;8.450;2024-01-15T10:48:16;17.85;;;11.15;;
29412;SDS011;16389;50.126;8.450;2024-01-15T10:50:44;16.80;;;10.30;;
29412;SDS011;16389;50.126;8.450;2024-01-15T10:53:11;15.82;;;10.45;;
29412;SDS011;16389;50.126;8.450;2024-01-15T10:55:39;19.77;;;10.80;;
29412;SDS011;16389;50.126;8.450;2024-01-15T10:58:07;13.88;;;10.18;;
29412;SDS011;16389;50.126;8.450;2024-01-15T11:00:37;14.40;;;8.85;;
29412;SDS011;16389;50.126;8.450;2024-01-15T11:03:04;11.43;;;8.48;;
29412;SDS011;16389;50.126;8.450;2024-01-15T11:05:43;16.45;;;9.45;;
29412;SDS011;16389;50.126;8.450;2024-01-15T11:08:09;15.35;;;9.95;;
29412;SDS011;16389;50.126;8.450;2024-01-15T11:10:43;13.80;;;9.35;;
29412;SDS011;16389;50.126;8.450;2024-01-15T11:13:20;11.95;;;8.30;;
29412;SDS011;16389;50.126;8.450;2024-01-15T11:18:29;13.55;;;8.82;;
29412;SDS011;16389;50.126;8.450;2024-01-15T11:26:26;16.02;;;8.60;;
29412;SDS011;16389;50.126;8.450;2024-01-15T11:29:07;13.23;;;8.85;;
29412;SDS011;16389;50.126;8.450;2024-01-15T11:34:06;13.13;;;9.07;;
29412;SDS011;16389;50.126;8.450;2024-01-15T11:41:55;17.23;;;9.75;;
29412;SDS011;16389;50.126;8.450;2024-01-15T11:44:30;13.15;;;9.07;;
29412;SDS011;16389;50.126;8.450;2024-01-15T11:46:57;13.55;;;8.48;;
29412;SDS011;16389;50.126;8.450;2024-01-15T11:54:46;14.25;;;9.20;;
29412;SDS011;16389;50.126;8.450;2024-01-15T11:57:26;13.05;;;8.85;;
29412;SDS011;16389;50.126;8.450;2024-01-15T12:00:15;13.35;;;8.02;;
29412;SDS011;16389;50.126;8.450;2024-01-15T12:02:41;10.85;;;8.13;;
29412;SDS011;16389;50.126;8.450;2024-01-15T12:05:09;11.38;;;7.20;;
29412;SDS011;16389;50.126;8.450;2024-01-15T12:07:39;12.07;;;7.93;;
29412;SDS011;16389;50.126;8.450;2024-01-15T12:15:26;11.65;;;8.48;;
29412;SDS011;16389;50.126;8.450;2024-01-15T12:17:55;11.20;;;7.63;;
29412;SDS011;16389;50.126;8.450;2024-01-15T12:20:27;11.05;;;8.00;;
29412;SDS011;16389;50.126;8.450;2024-01-15T12:25:20;10.18;;;7.18;;
29412;SDS011;16389;50.126;8.450;2024-01-15T12:27:52;11.85;;;7.32;;
29412;SDS011;16389;50.126;8.450;2024-01-15T12:30:18;10.05;;;8.18;;
29412;SDS011;16389;50.126;8.450;2024-01-15T12:32:43;11.23;;;7.90;;
29412;SDS011;16389;50.126;8.450;2024-01-15T12:35:09;13.52;;;8.05;;
29412;SDS011;16389;50.126;8.450;2024-01-15T12:37:36;11.32;;;7.32;;
29412;SDS011;16389;50.126;8.450;2024-01-15T12:40:03;8.98;;;6.60;;
29412;SDS011;16389;50.126;8.450;2024-01-15T12:42:31;10.30;;;6.43;;
29412;SDS011;16389;50.126;8.450;2024-01-15T12:44:57;9.35;;;6.30;;
29412;SDS011;16389;50.126;8.450;2024-01-15T12:47:23;8.20;;;5.93;;
29412;SDS011;16389;50.126;8.450;2024-01-15T12:49:51;9.15;;;6.97;;
29412;SDS011;16389;50.126;8.450;2024-01-15T12:52:19;9.82;;;6.65;;
29412;SDS011;16389;50.126;8.450;2024-01-15T12:54:44;7.38;;;5.45;;
29412;SDS011;16389;50.126;8.450;2024-01-15T12:57:10;10.45;;;6.50;;
29412;SDS011;16389;50.126;8.450;2024-01-15T12:59:36;8.40;;;5.47;;
29412;SDS011;16389;50.126;8.450;2024-01-15T13:02:01;8.45;;;5.45;;
29412;SDS011;16389;50.126;8.450;2024-01-15T13:04:27;9.48;;;5.88;;
29412;SDS011;16389;50.126;8.450;2024-01-15T13:06:52;7.45;;;5.20;;
29412;SDS011;16389;50.126;8.450;2024-01-15T13:09:18;8.55;;;5.60;;
29412;SDS011;16389;50.126;8.450;2024-01-15T13:11:47;9.15;;;5.20;;
29412;SDS011;16389;50.126;8.450;2024-01-15T13:14:13;5.67;;;4.53;;
29412;SDS011;16389;50.126;8.450;2024-01-15T13:16:39;5.85;;;4.65;;
29412;SDS011;16389;50.126;8.450;2024-01-15T13:19:06;6.30;;;4.45;;
29412;SDS011;16389;50.126;8.450;2024-01-15T13:21:38;7.03;;;4.90;;
29412;SDS011;16389;50.126;8.450;2024-01-15T13:24:05;6.47;;;5.05;;
29412;SDS011;16389;50.126;8.450;2024-01-15T13:26:31;6.60;;;4.45;;
29412;SDS011;16389;50.126;8.450;2024-01-15T13:28:58;8.73;;;5.07;;
29412;SDS011;16389;50.126;8.450;2024-01-15T13:31:24;6.78;;;4.63;;
29412;SDS011;16389;50.126;8.450;2024-01-15T13:33:50;6.45;;;4.80;;
29412;SDS011;16389;50.126;8.450;2024-01-15T13:36:15;7.93;;;4.82;;
29412;SDS011;16389;50.126;8.450;2024-01-15T13:38:41;6.70;;;4.47;;
29412;SDS011;16389;50.126;8.450;2024-01-15T13:41:07;5.50;;;4.53;;
29412;SDS011;16389;50.126;8.450;2024-01-15T13:43:33;6.82;;;3.42;;
29412;SDS011;16389;50.126;8.450;2024-01-15T13:45:58;5.25;;;4.03;;
29412;SDS011;16389;50.126;8.450;2024-01-15T13:48:25;5.03;;;3.80;;
29412;SDS011;16389;50.126;8.450;2024-01-15T13:50:51;9.40;;;4.32;;
29412;SDS011;16389;50.126;8.450;2024-01-15T13:53:17;4.00;;;2.85;;
29412;SDS011;16389;50.126;8.450;2024-01-15T13:55:47;6.30;;;3.25;;
29412;SDS011;16389;50.126;8.450;2024-01-15T13:58:12;4.95;;;2.85;;
29412;SDS011;16389;50.126;8.450;2024-01-15T14:00:38;5.55;;;2.85;;
29412;SDS011;16389;50.126;8.450;2024-01-15T14:03:04;5.68;;;3.22;;
29412;SDS011;16389;50.126;8.450;2024-01-15T14:05:30;5.93;;;3.38;;
29412;SDS011;16389;50.126;8.450;2024-01-15T14:07:56;5.32;;;2.92;;
29412;SDS011;16389;50.126;8.450;2024-01-15T14:10:22;6.18;;;3.22;;
29412;SDS011;16389;50.126;8.450;2024-01-15T14:12:47;7.57;;;3.63;;
29412;SDS011;16389;50.126;8.450;2024-01-15T14:15:13;8.93;;;3.30;;
29412;SDS011;16389;50.126;8.450;2024-01-15T14:17:39;7.15;;;3.72;;
29412;SDS011;16389;50.126;8.450;2024-01-15T14:20:05;6.88;;;3.20;;
29412;SDS011;16389;50.126;8.450;2024-01-15T14:22:31;7.07;;;3.38;;
29412;SDS011;16389;50.126;8.450;2024-01-15T14:24:56;5.05;;;2.90;;
29412;SDS011;16389;50.126;8.450;2024-01-15T14:27:22;7.20;;;3.40;;
29412;SDS011;16389;50.126;8.450;2024-01-15T14:29:49;5.45;;;3.30;;
29412;SDS011;16389;50.126;8.450;2024-01-15T14:32:14;5.32;;;3.00;;
29412;SDS011;16389;50.126;8.450;2024-01-15T14:34:41;5.60;;;3.40;;
29412;SDS011;16389;50.126;8.450;2024-01-15T14:37:06;4.10;;;2.78;;
29412;SDS011;16389;50.126;8.450;2024-01-15T14:39:32;5.68;;;3.40;;
29412;SDS011;16389;50.126;8.450;2024-01-15T14:41:59;4.70;;;3.25;;
29412;SDS011;16389;50.126;8.450;2024-01-15T14:44:25;5.95;;;3.58;;
29412;SDS011;16389;50.126;8.450;2024-01-15T14:46:51;4.60;;;3.45;;
29412;SDS011;16389;50.126;8.450;2024-01-15T14:49:17;5.07;;;3.70;;
29412;SDS011;16389;50.126;8.450;2024-01-15T14:51:43;6.68;;;3.45;;
29412;SDS011;16389;50.126;8.450;2024-01-15T14:54:09;6.22;;;3.20;;